Time;durP1;ratioP1;P1;durP2;ratioP2;P2;SDS_P1;SDS_P2;PMS_P1;PMS_P2;Temp;Humidity;BMP_temperature;BMP_pressure;BME280_temperature;BME280_humidity;BME280_pressure;Samples;Min_cycle;Max_cycle;Signal;HPM_P1;HPM_P2
2021/03/05 00:01:29;;;;;;;0.70;0.70;;;-1.20;99.90;;;;;;4997848;28;20207;-73
2021/03/05 00:03:55;;;;;;;0.90;0.90;;;-1.20;99.90;;;;;;4987384;28;20596;-73
2021/03/05 00:06:22;;;;;;;1.98;1.10;;;-1.00;99.90;;;;;;5017448;28;20229;-71
2021/03/05 00:08:47;;;;;;;1.00;1.00;;;-1.00;99.90;;;;;;5007465;28;20228;-73
2021/03/05 00:11:13;;;;;;;6.50;1.00;;;-0.90;99.90;;;;;;5014744;28;20623;-71
2021/03/05 00:13:39;;;;;;;1.48;1.17;;;-0.90;99.90;;;;;;5016539;28;20649;-73
2021/03/05 00:16:05;;;;;;;0.90;0.90;;;-0.80;99.90;;;;;;5017492;28;21011;-74
2021/03/05 00:18:31;;;;;;;1.58;1.00;;;-0.70;99.90;;;;;;5018992;28;20189;-71
2021/03/05 00:20:57;;;;;;;4.35;1.20;;;-0.80;99.90;;;;;;5002875;28;20204;-73
2021/03/05 00:23:22;;;;;;;1.65;1.10;;;-0.70;99.90;;;;;;5016761;28;20585;-70
2021/03/05 00:25:49;;;;;;;1.10;1.00;;;-0.70;99.90;;;;;;4996954;28;20213;-71
2021/03/05 00:28:16;;;;;;;1.27;0.90;;;-0.70;99.90;;;;;;4996873;28;20308;-73
2021/03/05 00:30:42;;;;;;;2.33;0.90;;;-0.70;99.90;;;;;;5016579;28;20191;-73
2021/03/05 00:33:08;;;;;;;0.80;0.80;;;-0.70;99.90;;;;;;5017264;28;20728;-72
2021/03/05 00:35:34;;;;;;;0.95;0.95;;;-0.60;99.90;;;;;;5006091;28;20237;-73
2021/03/05 00:38:00;;;;;;;1.35;1.00;;;-0.60;99.90;;;;;;5015602;28;20729;-73
2021/03/05 00:40:25;;;;;;;2.30;1.00;;;-0.70;99.90;;;;;;5013736;28;20198;-72
2021/03/05 00:42:52;;;;;;;0.90;0.90;;;-0.70;99.90;;;;;;5004976;28;20317;-72
2021/03/05 00:45:21;;;;;;;0.90;0.90;;;-0.70;99.90;;;;;;5012543;28;20213;-72
2021/03/05 00:47:47;;;;;;;2.50;1.00;;;-0.70;99.90;;;;;;5013289;28;20189;-73
2021/03/05 00:50:15;;;;;;;1.02;0.95;;;-0.80;99.90;;;;;;5014803;28;20245;-72
2021/03/05 00:52:40;;;;;;;4.63;1.27;;;-0.80;99.90;;;;;;5012144;28;21153;-72
2021/03/05 00:55:08;;;;;;;1.58;1.05;;;-0.80;99.90;;;;;;5010349;28;20206;-72
2021/03/05 00:57:34;;;;;;;1.52;0.90;;;-0.80;99.90;;;;;;5015842;28;20214;-72
2021/03/05 01:00:01;;;;;;;2.55;1.10;;;-0.80;99.90;;;;;;5022134;28;20194;-72
2021/03/05 01:02:26;;;;;;;1.52;1.05;;;-0.80;99.90;;;;;;5018054;28;20289;-72
2021/03/05 01:04:52;;;;;;;1.63;1.13;;;-0.90;99.90;;;;;;5014401;28;20671;-72
2021/03/05 01:07:18;;;;;;;1.45;1.00;;;-1.00;99.90;;;;;;5005984;28;20838;-72
2021/03/05 01:09:44;;;;;;;1.02;1.00;;;-1.00;99.90;;;;;;5020440;28;20221;-72
2021/03/05 01:12:11;;;;;;;1.48;1.00;;;-1.10;99.90;;;;;;5015179;28;20206;-72
2021/03/05 01:14:36;;;;;;;1.63;1.00;;;-1.10;99.90;;;;;;5013528;28;20199;-72
2021/03/05 01:17:03;;;;;;;1.10;1.00;;;-1.10;99.90;;;;;;5015622;28;20261;-71
2021/03/05 01:19:28;;;;;;;1.00;0.90;;;-1.10;99.90;;;;;;5016543;28;20206;-71
2021/03/05 01:21:55;;;;;;;4.03;1.27;;;-1.20;99.90;;;;;;5019751;28;20206;-73
2021/03/05 01:24:21;;;;;;;3.13;1.00;;;-1.10;99.90;;;;;;5016495;28;20210;-72
2021/03/05 01:26:47;;;;;;;1.77;1.10;;;-1.10;99.90;;;;;;5019155;28;20322;-73
2021/03/05 01:29:12;;;;;;;1.45;0.90;;;-1.20;99.90;;;;;;5016077;28;20197;-73
2021/03/05 01:31:38;;;;;;;5.20;1.30;;;-1.30;99.90;;;;;;5008426;28;20205;-72
2021/03/05 01:34:07;;;;;;;2.90;1.15;;;-1.40;99.90;;;;;;5014670;28;20248;-72
2021/03/05 01:36:33;;;;;;;1.50;1.17;;;-1.50;99.90;;;;;;5022002;28;20206;-73
2021/03/05 01:38:59;;;;;;;1.92;0.82;;;-1.40;99.90;;;;;;5020153;28;20638;-73
2021/03/05 01:41:25;;;;;;;2.17;1.30;;;-1.50;99.90;;;;;;5014088;28;20282;-72
2021/03/05 01:43:51;;;;;;;1.50;1.00;;;-1.40;99.90;;;;;;5017925;28;20194;-72
2021/03/05 01:46:19;;;;;;;1.77;1.20;;;-1.50;99.90;;;;;;5014647;28;20520;-73
2021/03/05 01:48:45;;;;;;;1.52;1.08;;;-1.60;99.90;;;;;;5016096;28;20214;-73
2021/03/05 01:51:21;;;;;;;1.95;1.10;;;-1.60;99.90;;;;;;5016714;28;20278;-73
2021/03/05 01:53:48;;;;;;;1.60;1.10;;;-1.70;99.90;;;;;;4997838;28;20193;-73
2021/03/05 01:56:31;;;;;;;1.20;1.02;;;-1.70;99.90;;;;;;5015824;28;20190;-73
2021/03/05 01:58:57;;;;;;;1.08;0.95;;;-1.60;99.90;;;;;;5012989;28;20266;-73
2021/03/05 02:01:24;;;;;;;2.88;1.20;;;-1.60;99.90;;;;;;5002693;28;20728;-73
2021/03/05 02:03:49;;;;;;;2.03;1.10;;;-1.60;99.90;;;;;;5023770;23;20244;-72
2021/03/05 02:06:16;;;;;;;1.70;1.15;;;-1.60;99.90;;;;;;5038517;28;20202;-72
2021/03/05 02:08:42;;;;;;;1.40;0.90;;;-1.70;99.90;;;;;;5034270;28;20202;-73
2021/03/05 02:11:08;;;;;;;1.80;0.95;;;-1.80;99.90;;;;;;5035379;28;20200;-72
2021/03/05 02:13:34;;;;;;;1.25;1.00;;;-1.80;99.90;;;;;;5034510;28;20194;-72
2021/03/05 02:16:07;;;;;;;1.67;1.00;;;-1.80;99.90;;;;;;5025250;28;20193;-72
2021/03/05 02:19:23;;;;;;;1.33;1.15;;;-1.80;99.90;;;;;;5039734;28;20192;-73
2021/03/05 02:22:11;;;;;;;1.65;1.00;;;-1.80;99.90;;;;;;4995242;28;20205;-73
2021/03/05 02:25:09;;;;;;;2.33;1.02;;;-1.90;99.90;;;;;;5035383;28;20206;-73
2021/03/05 02:27:53;;;;;;;1.10;0.93;;;-2.00;99.90;;;;;;5038669;28;20193;-72
2021/03/05 02:31:04;;;;;;;1.85;1.15;;;-2.10;99.90;;;;;;5034327;28;20663;-72
2021/03/05 02:33:37;;;;;;;1.98;1.00;;;-2.20;99.90;;;;;;5037401;28;20212;-71
2021/03/05 02:36:08;;;;;;;1.70;1.10;;;-2.20;99.90;;;;;;5036068;28;20671;-72
2021/03/05 02:38:36;;;;;;;2.67;1.10;;;-2.30;99.90;;;;;;5037527;28;20659;-72
2021/03/05 02:41:06;;;;;;;1.17;0.98;;;-2.30;99.90;;;;;;5023684;28;20210;-72
2021/03/05 02:43:34;;;;;;;0.90;0.90;;;-2.40;99.90;;;;;;5038379;28;20245;-71
2021/03/05 02:46:03;;;;;;;1.70;1.23;;;-2.30;99.90;;;;;;5039910;28;20232;-71
2021/03/05 02:48:37;;;;;;;1.33;1.10;;;-2.10;99.90;;;;;;5039819;28;20205;-72
2021/03/05 02:51:06;;;;;;;1.08;1.00;;;-2.00;99.90;;;;;;5033518;28;21004;-72
2021/03/05 02:53:34;;;;;;;1.17;1.00;;;-2.00;99.90;;;;;;5038952;28;20585;-72
2021/03/05 02:56:06;;;;;;;1.50;1.00;;;-2.10;99.90;;;;;;5036379;28;20312;-72
2021/03/05 02:58:32;;;;;;;1.40;1.10;;;-2.10;99.90;;;;;;5033558;28;20740;-72
2021/03/05 03:01:00;;;;;;;1.00;1.00;;;-2.10;99.90;;;;;;5035851;28;20259;-72
2021/03/05 03:03:27;;;;;;;1.80;1.10;;;-2.10;99.90;;;;;;5037271;28;20210;-71
2021/03/05 03:05:54;;;;;;;1.20;1.00;;;-2.00;99.90;;;;;;5057933;28;20240;-72
2021/03/05 03:08:21;;;;;;;1.35;1.13;;;-2.10;99.90;;;;;;5057875;28;20655;-72
2021/03/05 03:10:48;;;;;;;3.08;1.20;;;-2.10;99.90;;;;;;5056440;28;20197;-72
2021/03/05 03:13:16;;;;;;;1.13;1.00;;;-2.20;99.90;;;;;;5054696;28;20201;-72
2021/03/05 03:15:42;;;;;;;1.05;0.95;;;-2.20;99.90;;;;;;5053320;28;21815;-72
2021/03/05 03:18:11;;;;;;;0.95;0.77;;;-2.20;99.90;;;;;;5052876;28;20213;-72
2021/03/05 03:20:38;;;;;;;1.17;0.93;;;-2.30;99.90;;;;;;5053246;28;20278;-71
2021/03/05 03:23:07;;;;;;;1.10;1.00;;;-2.20;99.90;;;;;;5054121;28;20300;-72
2021/03/05 03:25:33;;;;;;;1.35;1.05;;;-2.40;99.90;;;;;;5056488;28;20633;-73
2021/03/05 03:27:59;;;;;;;1.00;1.00;;;-2.50;99.90;;;;;;5050917;28;20679;-72
2021/03/05 03:30:26;;;;;;;1.80;1.10;;;-2.50;99.90;;;;;;5051127;28;20204;-72
2021/03/05 03:32:53;;;;;;;1.02;0.90;;;-2.50;99.90;;;;;;5053844;28;20250;-72
2021/03/05 03:35:19;;;;;;;1.67;1.10;;;-2.40;99.90;;;;;;5053164;28;20201;-72
2021/03/05 03:37:45;;;;;;;5.15;1.30;;;-2.30;99.90;;;;;;5054808;28;20555;-72
2021/03/05 03:40:20;;;;;;;2.90;1.10;;;-2.10;99.90;;;;;;5054390;28;20201;-73
2021/03/05 03:42:47;;;;;;;0.80;0.80;;;-2.20;99.90;;;;;;5042644;28;20204;-73
2021/03/05 03:45:14;;;;;;;1.65;1.08;;;-2.10;99.90;;;;;;5053419;28;20327;-73
2021/03/05 03:47:42;;;;;;;1.13;1.00;;;-2.00;99.90;;;;;;5054293;28;20625;-73
2021/03/05 03:50:13;;;;;;;0.95;0.93;;;-1.90;99.90;;;;;;5054451;28;20197;-73
2021/03/05 03:52:41;;;;;;;1.30;1.05;;;-1.90;99.90;;;;;;5057301;28;20193;-73
2021/03/05 03:55:09;;;;;;;8.13;1.20;;;-1.90;99.90;;;;;;5054596;28;20194;-73
2021/03/05 03:57:40;;;;;;;1.85;0.90;;;-2.00;99.90;;;;;;5053579;28;20228;-72
2021/03/05 04:00:07;;;;;;;3.83;1.00;;;-2.10;99.90;;;;;;5050740;28;20198;-73
2021/03/05 04:02:33;;;;;;;1.63;1.05;;;-2.00;99.90;;;;;;5052800;28;20196;-73
2021/03/05 04:05:05;;;;;;;1.17;1.00;;;-2.00;99.90;;;;;;5053146;28;20236;-73
2021/03/05 04:07:31;;;;;;;1.17;1.10;;;-2.00;99.90;;;;;;5041000;28;20200;-71
2021/03/05 04:10:00;;;;;;;2.88;1.10;;;-2.00;99.90;;;;;;5050778;28;20197;-73
2021/03/05 04:12:28;;;;;;;0.90;0.90;;;-2.10;99.90;;;;;;5054778;28;20189;-72
2021/03/05 04:14:55;;;;;;;1.05;1.05;;;-2.10;99.90;;;;;;5052470;28;20666;-72
2021/03/05 04:17:21;;;;;;;1.85;1.20;;;-2.00;99.90;;;;;;5035843;28;20311;-72
2021/03/05 04:19:48;;;;;;;3.90;1.00;;;-2.10;99.90;;;;;;5054814;28;20284;-73
2021/03/05 04:22:15;;;;;;;1.20;1.00;;;-2.00;99.90;;;;;;5053033;28;20201;-72
2021/03/05 04:24:41;;;;;;;1.23;1.13;;;-2.10;99.90;;;;;;5054034;28;20649;-72
2021/03/05 04:27:08;;;;;;;2.00;1.08;;;-2.20;99.90;;;;;;5043286;28;20204;-71
2021/03/05 04:29:34;;;;;;;1.65;1.00;;;-2.20;99.90;;;;;;5052098;28;20193;-72
2021/03/05 04:31:59;;;;;;;3.22;1.20;;;-2.30;99.90;;;;;;5053282;28;20965;-72
2021/03/05 04:34:25;;;;;;;1.10;1.00;;;-2.40;99.90;;;;;;5034878;28;20201;-72
2021/03/05 04:36:51;;;;;;;1.05;1.05;;;-2.40;99.90;;;;;;5056117;28;20197;-71
2021/03/05 04:39:17;;;;;;;1.52;1.13;;;-2.40;99.90;;;;;;5053203;28;20211;-72
2021/03/05 04:41:42;;;;;;;1.83;1.00;;;-2.30;99.90;;;;;;5052226;28;20205;-72
2021/03/05 04:44:08;;;;;;;1.65;1.00;;;-2.30;99.90;;;;;;5050099;28;20209;-72
2021/03/05 04:46:34;;;;;;;3.33;1.10;;;-2.30;99.90;;;;;;5052835;28;20270;-71
2021/03/05 04:48:59;;;;;;;2.00;1.00;;;-2.40;99.90;;;;;;5053559;28;20195;-71
2021/03/05 04:51:25;;;;;;;1.00;1.00;;;-2.40;99.90;;;;;;5052695;28;20193;-71
2021/03/05 04:53:51;;;;;;;1.45;1.13;;;-2.40;99.90;;;;;;5054685;28;20200;-71
2021/03/05 04:56:16;;;;;;;1.55;1.20;;;-2.30;99.90;;;;;;5054377;28;20228;-72
2021/03/05 04:58:42;;;;;;;3.22;1.10;;;-2.40;99.90;;;;;;5054919;28;20549;-72
2021/03/05 05:01:08;;;;;;;1.55;1.08;;;-2.30;99.90;;;;;;5051281;28;20209;-72
2021/03/05 05:03:34;;;;;;;1.75;1.17;;;-2.30;99.90;;;;;;5055093;28;20201;-72
2021/03/05 05:05:59;;;;;;;2.15;1.10;;;-2.40;99.90;;;;;;5055627;28;20255;-72
2021/03/05 05:08:25;;;;;;;1.20;1.10;;;-2.30;99.90;;;;;;5059163;28;20284;-72
2021/03/05 05:10:51;;;;;;;3.83;0.95;;;-2.40;99.90;;;;;;5060383;28;20205;-71
2021/03/05 05:13:17;;;;;;;5.68;1.00;;;-2.30;99.90;;;;;;5043151;28;20205;-72
2021/03/05 05:15:42;;;;;;;1.00;1.00;;;-2.30;99.90;;;;;;5041538;28;20207;-72
2021/03/05 05:18:08;;;;;;;1.10;1.00;;;-2.40;99.90;;;;;;5061221;28;20199;-72
2021/03/05 05:20:34;;;;;;;3.90;1.02;;;-2.30;99.90;;;;;;5060042;28;20209;-72
2021/03/05 05:23:00;;;;;;;1.92;1.10;;;-2.20;99.90;;;;;;5062052;28;20201;-72
2021/03/05 05:25:26;;;;;;;1.65;1.15;;;-2.20;99.90;;;;;;5061926;28;20235;-72
2021/03/05 05:27:52;;;;;;;3.85;1.23;;;-2.10;99.90;;;;;;5058303;28;20193;-72
2021/03/05 05:30:17;;;;;;;1.88;1.13;;;-2.10;99.90;;;;;;5040959;28;20208;-72
2021/03/05 05:32:43;;;;;;;2.88;0.98;;;-2.10;99.90;;;;;;5048421;28;20966;-72
2021/03/05 05:35:10;;;;;;;4.57;1.10;;;-2.10;99.90;;;;;;5049171;28;20223;-72
2021/03/05 05:37:35;;;;;;;1.20;1.10;;;-2.10;99.90;;;;;;5050662;28;20244;-72
2021/03/05 05:40:02;;;;;;;1.23;1.10;;;-2.10;99.90;;;;;;5049580;28;20198;-72
2021/03/05 05:42:28;;;;;;;1.40;1.20;;;-2.20;99.90;;;;;;5053244;28;20201;-71
2021/03/05 05:44:53;;;;;;;1.50;1.23;;;-2.20;99.90;;;;;;5052452;28;20216;-72
2021/03/05 05:47:20;;;;;;;1.40;1.17;;;-2.20;99.90;;;;;;5055523;28;20217;-72
2021/03/05 05:49:46;;;;;;;1.17;0.98;;;-2.20;99.90;;;;;;5063330;28;20334;-71
2021/03/05 05:52:19;;;;;;;5.10;1.17;;;-2.30;99.90;;;;;;5056677;28;20312;-72
2021/03/05 05:54:47;;;;;;;0.90;0.90;;;-2.30;99.90;;;;;;5060723;28;20212;-73
2021/03/05 05:57:13;;;;;;;0.90;0.90;;;-2.30;99.90;;;;;;5061938;28;20219;-71
2021/03/05 05:59:40;;;;;;;1.20;1.10;;;-2.20;99.90;;;;;;5054271;28;20207;-72
2021/03/05 06:02:06;;;;;;;1.05;1.00;;;-2.20;99.90;;;;;;5038527;28;20608;-72
2021/03/05 06:04:32;;;;;;;1.50;1.00;;;-2.20;99.90;;;;;;5039841;28;20225;-69
2021/03/05 06:07:01;;;;;;;1.95;1.10;;;-2.20;99.90;;;;;;5056958;28;20211;-72
2021/03/05 06:09:27;;;;;;;1.00;0.90;;;-2.20;99.90;;;;;;5061055;28;20211;-71
2021/03/05 06:11:52;;;;;;;2.08;1.30;;;-2.20;99.90;;;;;;5037604;28;20216;-72
2021/03/05 06:14:20;;;;;;;21.27;8.93;;;-2.20;99.90;;;;;;5063788;28;20299;-71
2021/03/05 06:16:59;;;;;;;2.17;1.50;;;-2.20;99.90;;;;;;5062362;28;20189;-72
2021/03/05 06:19:28;;;;;;;6.95;2.70;;;-2.10;99.90;;;;;;5041389;28;20218;-71
2021/03/05 06:21:54;;;;;;;2.72;2.10;;;-2.10;99.90;;;;;;5060114;28;20691;-72
2021/03/05 06:24:20;;;;;;;7.97;3.92;;;-2.00;99.90;;;;;;5037682;28;20217;-72
2021/03/05 06:27:00;;;;;;;2.60;1.95;;;-1.90;99.90;;;;;;5061225;28;20567;-71
2021/03/05 06:29:47;;;;;;;8.63;5.55;;;-1.90;99.90;;;;;;5057995;28;20208;-72
2021/03/05 06:32:15;;;;;;;6.93;2.28;;;-1.80;99.90;;;;;;5054600;28;20793;-71
2021/03/05 06:34:47;;;;;;;9.82;5.72;;;-1.70;99.90;;;;;;5061624;28;20281;-72
2021/03/05 06:37:14;;;;;;;7.93;4.57;;;-1.70;99.90;;;;;;5044941;28;20228;-71
2021/03/05 06:39:40;;;;;;;5.22;2.63;;;-1.80;99.90;;;;;;5060392;28;20238;-71
2021/03/05 06:42:09;;;;;;;7.00;3.45;;;-1.70;99.90;;;;;;5061859;28;20193;-72
2021/03/05 06:44:40;;;;;;;5.53;2.58;;;-1.60;99.90;;;;;;5043924;28;20217;-72
2021/03/05 06:47:14;;;;;;;2.40;1.10;;;-1.50;99.90;;;;;;5057328;28;20200;-72
2021/03/05 06:49:41;;;;;;;8.32;3.50;;;-1.50;99.90;;;;;;5054221;28;20190;-73
2021/03/05 06:52:07;;;;;;;1.20;1.10;;;-1.40;99.90;;;;;;5055998;28;21127;-72
2021/03/05 06:54:35;;;;;;;1.85;1.67;;;-1.40;99.90;;;;;;5054254;28;20201;-72
2021/03/05 06:57:03;;;;;;;1.42;1.33;;;-1.40;99.90;;;;;;5055256;28;20201;-72
2021/03/05 06:59:37;;;;;;;2.47;1.80;;;-1.40;99.90;;;;;;5058335;28;20679;-72
2021/03/05 07:02:05;;;;;;;1.25;1.10;;;-1.30;99.90;;;;;;5057035;28;20229;-72
2021/03/05 07:04:33;;;;;;;1.50;1.08;;;-1.30;99.90;;;;;;5041027;28;20239;-71
2021/03/05 07:07:06;;;;;;;1.73;1.20;;;-1.20;99.90;;;;;;5058480;28;20220;-72
2021/03/05 07:09:43;;;;;;;2.97;1.50;;;-1.20;99.90;;;;;;5060810;28;20334;-72
2021/03/05 07:12:14;;;;;;;2.63;1.45;;;-1.20;99.90;;;;;;5062847;28;20197;-72
2021/03/05 07:14:41;;;;;;;23.88;10.15;;;-1.20;99.90;;;;;;5054770;28;20197;-72
2021/03/05 07:17:07;;;;;;;3.95;2.53;;;-1.10;99.90;;;;;;5058137;28;20201;-72
2021/03/05 07:19:35;;;;;;;2.03;0.90;;;-1.00;99.90;;;;;;5043144;28;20209;-72
2021/03/05 07:22:02;;;;;;;0.85;0.85;;;-0.90;99.90;;;;;;5044109;28;20846;-71
2021/03/05 07:24:29;;;;;;;2.17;1.60;;;-0.90;99.90;;;;;;5040047;28;20576;-72
2021/03/05 07:27:00;;;;;;;2.65;1.25;;;-0.80;99.90;;;;;;5054790;28;20197;-70
2021/03/05 07:29:34;;;;;;;1.45;1.30;;;-0.80;99.90;;;;;;5047484;28;20200;-72
2021/03/05 07:32:36;;;;;;;1.00;1.00;;;-0.70;99.90;;;;;;5058067;28;20250;-72
2021/03/05 07:35:06;;;;;;;5.55;1.30;;;-0.60;99.90;;;;;;5054693;28;20612;-71
2021/03/05 07:37:45;;;;;;;1.17;1.00;;;-0.50;99.90;;;;;;5037918;28;20540;-72
2021/03/05 07:40:15;;;;;;;1.38;1.13;;;-0.40;99.90;;;;;;5057586;28;20193;-72
2021/03/05 07:42:41;;;;;;;1.50;1.10;;;-0.40;99.90;;;;;;5059756;28;20192;-73
2021/03/05 07:45:09;;;;;;;2.65;1.30;;;-0.30;99.90;;;;;;5055500;28;20212;-72
2021/03/05 07:47:38;;;;;;;2.33;1.67;;;-0.30;99.90;;;;;;5038098;28;20254;-72
2021/03/05 07:50:07;;;;;;;1.50;1.13;;;-0.20;99.90;;;;;;5041114;28;20262;-72
2021/03/05 07:52:33;;;;;;;1.08;0.98;;;-0.10;99.90;;;;;;5058347;28;20201;-73
2021/03/05 07:54:59;;;;;;;7.72;2.58;;;-0.10;99.90;;;;;;5058950;28;20733;-72
2021/03/05 07:57:25;;;;;;;13.05;6.45;;;0.00;99.90;;;;;;5059451;28;20207;-72
2021/03/05 07:59:52;;;;;;;1.25;1.00;;;0.10;99.90;;;;;;5057823;28;20220;-72
2021/03/05 08:02:24;;;;;;;2.17;1.20;;;0.20;99.90;;;;;;5060081;28;20259;-72
2021/03/05 08:07:20;;;;;;;1.00;1.00;;;0.40;99.90;;;;;;5036347;28;20212;-72
2021/03/05 08:09:46;;;;;;;1.25;1.02;;;0.50;99.90;;;;;;5035672;28;20272;-72
2021/03/05 08:12:45;;;;;;;1.60;1.30;;;0.60;99.90;;;;;;5039855;28;20208;-72
2021/03/05 08:15:10;;;;;;;6.03;1.67;;;0.70;99.90;;;;;;5036953;28;20212;-73
2021/03/05 08:17:49;;;;;;;1.83;1.00;;;0.80;99.90;;;;;;5036160;28;20198;-72
2021/03/05 08:20:17;;;;;;;4.25;1.05;;;0.90;99.90;;;;;;5033576;28;20205;-73
2021/03/05 08:22:58;;;;;;;0.80;0.80;;;1.00;99.90;;;;;;5049416;28;20208;-71
2021/03/05 08:25:29;;;;;;;2.08;1.15;;;1.10;99.90;;;;;;5035757;28;20291;-71
2021/03/05 08:27:56;;;;;;;1.58;0.75;;;1.10;99.90;;;;;;5039257;28;20198;-73
2021/03/05 08:30:34;;;;;;;1.23;0.93;;;1.20;99.70;;;;;;5032822;28;20202;-72
2021/03/05 08:33:04;;;;;;;1.33;0.80;;;1.40;99.90;;;;;;5037874;28;20224;-71
2021/03/05 08:35:34;;;;;;;1.20;0.80;;;1.50;99.50;;;;;;5038528;28;20624;-71
2021/03/05 08:38:08;;;;;;;1.33;0.90;;;1.60;98.30;;;;;;5028858;28;20194;-72
2021/03/05 08:40:44;;;;;;;0.90;0.90;;;1.70;98.20;;;;;;5034698;28;20201;-72
2021/03/05 08:43:10;;;;;;;0.95;0.85;;;1.70;98.20;;;;;;5030203;28;20212;-73
2021/03/05 08:45:45;;;;;;;2.03;1.10;;;1.70;97.10;;;;;;5032541;28;20237;-72
2021/03/05 08:48:15;;;;;;;1.15;0.85;;;1.80;96.70;;;;;;5044996;28;20292;-73
2021/03/05 08:50:41;;;;;;;3.70;1.65;;;1.80;97.50;;;;;;5031771;28;20202;-72
2021/03/05 08:53:11;;;;;;;71.43;27.63;;;2.00;97.00;;;;;;5038223;28;20224;-73
2021/03/05 08:55:39;;;;;;;27.67;11.82;;;2.10;96.70;;;;;;5033838;28;20280;-72
2021/03/05 08:58:05;;;;;;;1.40;0.88;;;2.30;96.40;;;;;;5034389;28;20202;-72
2021/03/05 09:00:34;;;;;;;13.48;4.20;;;2.40;95.00;;;;;;5034430;28;20197;-73
2021/03/05 09:03:18;;;;;;;8.05;4.78;;;2.40;95.50;;;;;;5038406;28;20201;-72
2021/03/05 09:05:46;;;;;;;6.10;1.45;;;2.40;95.70;;;;;;5034754;28;20336;-73
2021/03/05 09:08:15;;;;;;;4.50;1.30;;;2.60;94.30;;;;;;5039652;28;20206;-72
2021/03/05 09:10:56;;;;;;;1.10;0.80;;;2.60;93.80;;;;;;5038908;28;20212;-72
2021/03/05 09:13:35;;;;;;;3.40;0.80;;;2.60;93.70;;;;;;5035961;28;20189;-73
2021/03/05 09:16:04;;;;;;;12.13;6.47;;;2.50;94.10;;;;;;5035769;28;20297;-73
2021/03/05 09:18:29;;;;;;;17.25;8.40;;;2.70;94.10;;;;;;5037175;28;20206;-72
2021/03/05 09:20:57;;;;;;;1.13;1.02;;;2.80;93.70;;;;;;5043732;28;20205;-73
2021/03/05 09:23:29;;;;;;;2.17;1.10;;;2.90;93.30;;;;;;5044253;28;20206;-73
2021/03/05 09:26:05;;;;;;;4.22;3.17;;;3.00;93.30;;;;;;5042619;28;20220;-71
2021/03/05 09:28:40;;;;;;;2.95;1.95;;;3.20;93.70;;;;;;5041338;28;20221;-73
2021/03/05 09:31:08;;;;;;;0.90;0.80;;;3.40;92.90;;;;;;5039297;28;20216;-72
2021/03/05 09:33:39;;;;;;;3.03;1.73;;;3.40;91.70;;;;;;5041845;28;20193;-71
2021/03/05 09:36:11;;;;;;;2.53;1.45;;;3.40;92.60;;;;;;5041660;28;20220;-72
2021/03/05 09:38:40;;;;;;;1.45;1.35;;;3.60;91.70;;;;;;5042361;28;20216;-73
2021/03/05 09:41:16;;;;;;;3.72;1.90;;;3.70;91.40;;;;;;5044143;28;20214;-73
2021/03/05 09:43:43;;;;;;;2.92;2.03;;;3.60;91.30;;;;;;5043383;28;20322;-73
2021/03/05 09:46:23;;;;;;;1.75;0.80;;;3.70;92.20;;;;;;5027332;28;20217;-72
2021/03/05 09:48:51;;;;;;;1.95;0.82;;;3.70;90.90;;;;;;5042869;28;20327;-73
2021/03/05 09:51:17;;;;;;;2.92;1.90;;;3.80;90.20;;;;;;5041317;28;20743;-73
2021/03/05 09:53:57;;;;;;;1.10;1.00;;;3.90;90.70;;;;;;5045550;28;20194;-73
2021/03/05 09:56:25;;;;;;;0.77;0.77;;;4.00;90.90;;;;;;5044206;28;20254;-72
2021/03/05 09:58:56;;;;;;;0.77;0.77;;;4.20;89.40;;;;;;5021635;28;20250;-75
2021/03/05 10:01:22;;;;;;;1.38;0.90;;;4.20;89.50;;;;;;5019692;28;20212;-72
2021/03/05 10:03:59;;;;;;;1.20;0.90;;;4.30;89.00;;;;;;5046030;28;20232;-71
2021/03/05 10:06:29;;;;;;;4.10;0.82;;;4.50;89.40;;;;;;5063804;28;20211;-72
2021/03/05 10:09:01;;;;;;;4.22;0.80;;;4.60;88.50;;;;;;5061961;28;20527;-72
2021/03/05 10:11:42;;;;;;;0.80;0.80;;;4.70;86.80;;;;;;5056980;28;20218;-73
2021/03/05 10:14:25;;;;;;;0.85;0.70;;;4.80;86.80;;;;;;5061255;28;20247;-73
2021/03/05 10:16:51;;;;;;;1.00;0.60;;;4.80;87.10;;;;;;5055417;28;20196;-73
2021/03/05 10:19:21;;;;;;;0.65;0.65;;;5.00;86.70;;;;;;5058363;28;20224;-73
2021/03/05 10:21:52;;;;;;;2.35;0.75;;;5.00;82.80;;;;;;5042215;28;20204;-72
2021/03/05 10:24:18;;;;;;;0.77;0.77;;;4.80;85.50;;;;;;5045438;28;20195;-71
2021/03/05 10:29:50;;;;;;;0.90;0.70;;;5.00;86.20;;;;;;5059760;28;21081;-72
2021/03/05 10:32:25;;;;;;;0.75;0.75;;;5.20;83.80;;;;;;5056750;28;20296;-72
2021/03/05 10:34:53;;;;;;;2.15;0.80;;;5.40;80.60;;;;;;5061349;28;20612;-72
2021/03/05 10:37:20;;;;;;;0.80;0.60;;;5.20;82.40;;;;;;5060778;28;20570;-72
2021/03/05 10:39:47;;;;;;;1.30;0.70;;;5.10;83.10;;;;;;5039182;28;20201;-72
2021/03/05 10:42:18;;;;;;;3.42;0.80;;;5.00;83.70;;;;;;5060303;28;20266;-72
2021/03/05 10:44:46;;;;;;;2.33;1.40;;;5.10;82.20;;;;;;5058459;28;20228;-71
2021/03/05 10:47:14;;;;;;;8.70;1.10;;;5.30;83.00;;;;;;5060747;28;20931;-73
2021/03/05 10:49:41;;;;;;;1.13;0.90;;;5.50;84.20;;;;;;5062668;28;20208;-73
2021/03/05 10:52:11;;;;;;;2.13;0.90;;;5.90;82.80;;;;;;5046790;28;20262;-72
2021/03/05 10:54:38;;;;;;;1.17;0.90;;;6.10;80.50;;;;;;5063636;28;20208;-72
2021/03/05 10:57:04;;;;;;;0.82;0.82;;;6.10;81.80;;;;;;5063293;28;20693;-73
2021/03/05 10:59:30;;;;;;;1.15;0.90;;;6.20;81.60;;;;;;5061045;28;20611;-73
2021/03/05 11:01:56;;;;;;;1.70;1.00;;;6.30;79.30;;;;;;5056006;28;20204;-73
2021/03/05 11:04:26;;;;;;;0.80;0.70;;;6.10;77.70;;;;;;5055991;28;20212;-73
2021/03/05 11:06:53;;;;;;;0.70;0.70;;;5.90;81.60;;;;;;5056781;28;20199;-72
2021/03/05 11:09:21;;;;;;;1.98;1.10;;;6.10;78.60;;;;;;5058873;28;20221;-72
2021/03/05 11:11:48;;;;;;;4.15;0.90;;;6.30;80.00;;;;;;5039411;28;20583;-72
2021/03/05 11:14:14;;;;;;;6.28;1.10;;;6.20;78.40;;;;;;5055529;28;20215;-72
2021/03/05 11:16:40;;;;;;;0.80;0.80;;;6.10;77.60;;;;;;5039781;28;21148;-72
2021/03/05 11:19:06;;;;;;;1.08;0.80;;;6.20;77.90;;;;;;5065476;28;20225;-71
2021/03/05 11:21:32;;;;;;;4.00;0.88;;;6.20;76.80;;;;;;5062434;28;20977;-72
2021/03/05 11:23:59;;;;;;;9.05;1.00;;;6.30;76.00;;;;;;5058367;28;20193;-72
2021/03/05 11:26:25;;;;;;;1.00;0.90;;;6.30;77.70;;;;;;5059986;28;20686;-72
2021/03/05 11:28:53;;;;;;;1.75;0.98;;;6.40;77.20;;;;;;5059016;28;20857;-72
2021/03/05 11:31:19;;;;;;;0.70;0.70;;;6.50;76.30;;;;;;5053694;28;20216;-72
2021/03/05 11:33:45;;;;;;;2.88;0.90;;;6.80;74.50;;;;;;5063640;28;20181;-72
2021/03/05 11:36:16;;;;;;;4.25;0.85;;;6.90;72.80;;;;;;5063189;28;20204;-72
2021/03/05 11:38:43;;;;;;;2.00;0.80;;;6.80;71.60;;;;;;5057300;28;20189;-71
2021/03/05 11:41:09;;;;;;;5.78;0.90;;;6.70;72.30;;;;;;5059055;28;20208;-70
2021/03/05 11:43:49;;;;;;;0.80;0.80;;;6.60;73.50;;;;;;5055060;28;20951;-71
2021/03/05 11:46:18;;;;;;;1.10;0.85;;;6.40;73.10;;;;;;5056969;28;20610;-71
2021/03/05 11:48:44;;;;;;;0.80;0.80;;;6.50;73.50;;;;;;5059081;28;20666;-72
2021/03/05 11:51:10;;;;;;;1.05;0.90;;;6.50;71.60;;;;;;5059460;28;20275;-72
2021/03/05 11:53:36;;;;;;;2.63;0.93;;;6.30;71.90;;;;;;5057013;28;20667;-72
2021/03/05 11:56:03;;;;;;;3.67;0.80;;;6.60;72.70;;;;;;5061162;28;20737;-72
2021/03/05 11:58:29;;;;;;;0.70;0.70;;;6.60;71.90;;;;;;5035700;28;20215;-73
2021/03/05 12:00:55;;;;;;;3.90;0.90;;;6.70;70.20;;;;;;5055678;28;20208;-72
2021/03/05 12:03:21;;;;;;;1.58;0.90;;;6.50;71.80;;;;;;5058331;28;20196;-72
2021/03/05 12:05:46;;;;;;;0.70;0.70;;;6.70;72.60;;;;;;5050257;28;20221;-72
2021/03/05 12:08:12;;;;;;;1.88;0.70;;;6.80;69.50;;;;;;5052939;28;20287;-71
2021/03/05 12:10:38;;;;;;;1.20;0.82;;;6.80;68.30;;;;;;5062298;28;20201;-72
2021/03/05 12:13:04;;;;;;;0.90;0.70;;;6.80;70.20;;;;;;5045711;28;20188;-72
2021/03/05 12:15:30;;;;;;;2.83;0.70;;;7.00;69.40;;;;;;5062563;28;20193;-72
2021/03/05 12:17:56;;;;;;;2.13;1.00;;;7.10;67.30;;;;;;5056938;28;20803;-72
2021/03/05 12:20:21;;;;;;;2.22;1.10;;;7.10;67.90;;;;;;5053897;28;20559;-72
2021/03/05 12:22:48;;;;;;;3.53;1.00;;;6.80;67.80;;;;;;5044836;28;20193;-72
2021/03/05 12:25:14;;;;;;;0.90;0.70;;;6.80;69.60;;;;;;5058702;28;20644;-72
2021/03/05 12:27:40;;;;;;;1.33;0.80;;;6.80;68.60;;;;;;5039703;28;20189;-72
2021/03/05 12:30:07;;;;;;;2.55;1.02;;;6.90;68.00;;;;;;5058055;28;20280;-71
2021/03/05 12:32:32;;;;;;;0.60;0.60;;;6.70;68.50;;;;;;5044592;28;20199;-72
2021/03/05 12:34:58;;;;;;;1.65;0.80;;;6.70;68.90;;;;;;5056906;28;20204;-72
2021/03/05 12:37:24;;;;;;;3.60;0.80;;;6.50;69.70;;;;;;5055141;28;20689;-73
2021/03/05 12:39:50;;;;;;;0.73;0.73;;;6.70;70.70;;;;;;5039474;28;20200;-72
2021/03/05 12:42:15;;;;;;;1.77;0.80;;;6.80;68.00;;;;;;5064152;28;20708;-73
2021/03/05 12:44:41;;;;;;;0.85;0.80;;;7.00;68.70;;;;;;5062463;28;20733;-72
2021/03/05 12:47:07;;;;;;;1.10;0.70;;;7.00;67.80;;;;;;5054785;28;20198;-73
2021/03/05 12:49:33;;;;;;;2.25;0.90;;;7.10;67.50;;;;;;5043870;28;20246;-72
2021/03/05 12:51:58;;;;;;;1.20;0.90;;;7.40;67.60;;;;;;5060183;28;20196;-71
2021/03/05 12:54:24;;;;;;;4.30;0.80;;;7.20;64.50;;;;;;5051995;28;20198;-73
2021/03/05 12:56:50;;;;;;;0.77;0.70;;;7.20;64.80;;;;;;5040577;28;20705;-72
2021/03/05 12:59:15;;;;;;;1.40;0.80;;;7.10;66.30;;;;;;5047287;28;20219;-72
2021/03/05 13:01:41;;;;;;;1.30;0.75;;;7.20;64.00;;;;;;5065408;28;20193;-72
2021/03/05 13:04:07;;;;;;;1.25;0.70;;;7.20;62.80;;;;;;5041962;28;20232;-73